Time;durP1;ratioP1;P1;durP2;ratioP2;P2;SDS_P1;SDS_P2;PMS_P1;PMS_P2;Temp;Humidity;BMP_temperature;BMP_pressure;BME280_temperature;BME280_humidity;BME280_pressure;Samples;Min_cycle;Max_cycle;Signal;HPM_P1;HPM_P2
2024/01/15 00:01:15;;;;;;;9.77;3.00;;;;;;;1.82;100.00;99399.34;6303363;28;20062;-73
2024/01/15 00:04:16;;;;;;;9.65;2.38;;;;;;;1.77;100.00;99390.88;6303182;28;20053;-73
2024/01/15 00:07:17;;;;;;;3.72;1.80;;;;;;;1.86;100.00;99384.50;6302199;28;20037;-73
2024/01/15 00:10:20;;;;;;;3.33;1.63;;;;;;;1.84;100.00;99376.78;6302819;28;20447;-73
2024/01/15 00:13:21;;;;;;;6.60;1.95;;;;;;;1.85;100.00;99372.44;6303074;28;20052;-72
2024/01/15 00:16:23;;;;;;;8.40;2.40;;;;;;;1.69;100.00;99380.00;6302445;28;20433;-73
2024/01/15 00:19:24;;;;;;;5.47;1.33;;;;;;;1.80;100.00;99372.63;6303046;28;20052;-73
2024/01/15 00:22:26;;;;;;;5.85;2.25;;;;;;;1.84;100.00;99378.53;6302621;28;20064;-72
2024/01/15 00:25:29;;;;;;;15.10;2.22;;;;;;;1.87;100.00;99378.44;6302242;28;20049;-72
2024/01/15 00:28:30;;;;;;;7.28;2.35;;;;;;;1.79;100.00;99383.91;6301427;28;20041;-72
2024/01/15 00:31:31;;;;;;;4.05;2.03;;;;;;;1.71;100.00;99368.66;6302294;28;20052;-72
2024/01/15 00:34:33;;;;;;;4.30;1.90;;;;;;;1.72;100.00;99364.31;6302359;28;20074;-72
2024/01/15 00:37:34;;;;;;;5.00;2.20;;;;;;;1.69;100.00;99356.69;6301569;28;20456;-72
2024/01/15 00:40:37;;;;;;;5.65;2.10;;;;;;;1.76;100.00;99360.72;6302428;28;20052;-73
2024/01/15 00:43:38;;;;;;;5.72;2.03;;;;;;;1.65;100.00;99371.50;6301956;28;20132;-73
2024/01/15 00:46:44;;;;;;;9.07;1.90;;;;;;;1.63;100.00;99362.09;6301341;28;20464;-73
2024/01/15 00:49:46;;;;;;;2.70;1.42;;;;;;;1.58;100.00;99362.28;6302030;28;20052;-72
2024/01/15 00:52:47;;;;;;;6.38;1.77;;;;;;;1.70;100.00;99361.81;6300092;28;20051;-73
2024/01/15 00:55:50;;;;;;;4.00;1.52;;;;;;;1.63;100.00;99343.97;6300901;28;20055;-72
2024/01/15 00:58:51;;;;;;;8.85;1.80;;;;;;;1.60;100.00;99336.34;6301794;28;20036;-72
2024/01/15 01:01:52;;;;;;;3.80;1.83;;;;;;;1.57;100.00;99349.41;6301641;28;20052;-72
2024/01/15 01:04:54;;;;;;;8.52;1.77;;;;;;;1.55;100.00;99344.28;6301580;28;20051;-72
2024/01/15 01:07:55;;;;;;;12.35;2.30;;;;;;;1.46;100.00;99329.13;6300699;28;20052;-72
2024/01/15 01:10:58;;;;;;;3.35;1.48;;;;;;;1.44;100.00;99320.56;6301017;28;20053;-72
2024/01/15 01:14:00;;;;;;;6.72;1.90;;;;;;;1.52;100.00;99324.53;6301273;28;20045;-72
2024/01/15 01:17:01;;;;;;;6.78;2.08;;;;;;;1.57;100.00;99310.56;6297760;28;20041;-72
2024/01/15 01:20:06;;;;;;;4.82;1.58;;;;;;;1.37;100.00;99314.78;6287540;28;20048;-72
2024/01/15 01:23:07;;;;;;;8.00;1.95;;;;;;;1.42;100.00;99325.78;6287948;28;20045;-72
2024/01/15 01:26:10;;;;;;;7.90;1.77;;;;;;;1.46;100.00;99314.44;6288570;28;20372;-72
2024/01/15 01:29:11;;;;;;;3.63;1.48;;;;;;;1.46;100.00;99321.34;6289949;28;20066;-72
2024/01/15 01:32:12;;;;;;;3.90;1.50;;;;;;;1.37;100.00;99319.13;6288806;28;20049;-72
2024/01/15 01:35:14;;;;;;;6.88;1.23;;;;;;;1.52;100.00;99323.69;6281451;28;20056;-72
2024/01/15 01:38:15;;;;;;;9.75;3.08;;;;;;;1.52;100.00;99331.44;6275045;28;20044;-72
2024/01/15 01:41:18;;;;;;;3.38;1.13;;;;;;;1.52;100.00;99329.69;6276038;28;20052;-72
2024/01/15 01:44:19;;;;;;;3.30;1.30;;;;;;;1.63;100.00;99321.50;6275722;28;20053;-72
2024/01/15 01:47:20;;;;;;;11.40;1.55;;;;;;;1.61;100.00;99327.66;6285982;28;20052;-72
2024/01/15 01:50:22;;;;;;;3.63;1.45;;;;;;;1.77;100.00;99324.41;6288826;28;20396;-72
2024/01/15 01:53:25;;;;;;;10.27;1.38;;;;;;;1.76;100.00;99324.44;6275706;28;20052;-71
2024/01/15 01:56:28;;;;;;;15.05;1.75;;;;;;;1.72;100.00;99315.13;6275033;28;20429;-72
2024/01/15 01:59:31;;;;;;;2.97;1.00;;;;;;;1.82;100.00;99305.22;6275607;28;20327;-72
2024/01/15 02:02:33;;;;;;;5.72;1.30;;;;;;;1.71;100.00;99293.56;6296591;28;20048;-72
2024/01/15 02:05:36;;;;;;;1.52;1.00;;;;;;;1.74;100.00;99290.03;6299849;28;20357;-72
2024/01/15 02:08:37;;;;;;;15.98;1.20;;;;;;;1.74;100.00;99296.03;6298347;28;20044;-72
2024/01/15 02:11:40;;;;;;;4.18;0.85;;;;;;;1.77;100.00;99290.75;6300087;28;20388;-72
2024/01/15 02:14:41;;;;;;;5.68;0.45;;;;;;;1.79;100.00;99293.25;6299903;28;20049;-72
2024/01/15 02:17:59;;;;;;;3.80;1.17;;;;;;;1.82;100.00;99297.44;6299873;28;20048;-72
2024/01/15 02:21:01;;;;;;;11.70;1.50;;;;;;;1.92;100.00;99297.03;6299969;28;20345;-72
2024/01/15 02:24:03;;;;;;;3.42;1.00;;;;;;;1.90;100.00;99295.41;6299887;28;20040;-72
2024/01/15 02:27:05;;;;;;;16.30;1.58;;;;;;;1.82;100.00;99290.56;6299409;28;20067;-72
2024/01/15 02:30:09;;;;;;;2.88;0.70;;;;;;;1.81;100.00;99288.84;6300026;28;20052;-72
2024/01/15 02:33:12;;;;;;;4.18;0.88;;;;;;;1.78;100.00;99283.81;6299944;28;20052;-71
2024/01/15 02:36:14;;;;;;;13.05;0.90;;;;;;;1.71;100.00;99290.97;6299172;28;20048;-71
2024/01/15 02:39:16;;;;;;;4.70;1.10;;;;;;;1.62;100.00;99280.16;6300176;28;20044;-71
2024/01/15 02:42:18;;;;;;;3.20;0.88;;;;;;;1.59;100.00;99277.66;6299357;28;20055;-72
2024/01/15 02:45:20;;;;;;;11.60;0.77;;;;;;;1.66;100.00;99284.31;6299466;28;20068;-72
2024/01/15 02:48:21;;;;;;;11.30;0.98;;;;;;;1.73;100.00;99272.81;6299792;28;20044;-71
2024/01/15 02:51:23;;;;;;;6.20;0.85;;;;;;;1.56;100.00;99280.41;6303463;28;20049;-71
2024/01/15 02:54:25;;;;;;;3.35;0.75;;;;;;;1.59;100.00;99286.31;6304133;28;20051;-71
2024/01/15 02:57:27;;;;;;;11.35;1.30;;;;;;;1.74;100.00;99282.25;6304208;28;20049;-73
2024/01/15 03:00:28;;;;;;;3.45;1.00;;;;;;;1.82;100.00;99293.16;6304735;28;20055;-73
2024/01/15 03:03:29;;;;;;;7.35;1.02;;;;;;;1.78;100.00;99296.75;6304650;28;20052;-72
2024/01/15 03:06:30;;;;;;;6.28;0.77;;;;;;;1.66;100.00;99298.09;6303890;28;20045;-72
2024/01/15 03:09:33;;;;;;;8.38;0.70;;;;;;;1.62;100.00;99300.88;6304296;28;20052;-72
2024/01/15 03:12:34;;;;;;;6.28;1.00;;;;;;;1.52;100.00;99311.59;6304306;28;20448;-72
2024/01/15 03:15:36;;;;;;;7.10;0.52;;;;;;;1.61;100.00;99302.63;6303761;28;20057;-73
2024/01/15 03:18:37;;;;;;;4.30;1.17;;;;;;;1.59;100.00;99306.16;6301130;28;20064;-72
2024/01/15 03:21:38;;;;;;;0.40;0.40;;;;;;;1.55;100.00;99300.28;6304158;28;20048;-72
2024/01/15 03:24:41;;;;;;;4.88;0.93;;;;;;;1.55;100.00;99300.28;6301882;28;20052;-72
2024/01/15 03:27:42;;;;;;;3.22;0.95;;;;;;;1.55;100.00;99304.63;6303261;28;20045;-72
2024/01/15 03:30:44;;;;;;;9.98;1.33;;;;;;;1.70;100.00;99312.59;6304213;28;20059;-72
2024/01/15 03:33:45;;;;;;;6.35;0.70;;;;;;;1.68;100.00;99285.06;6303141;28;20048;-72
2024/01/15 03:36:46;;;;;;;0.57;0.32;;;;;;;1.70;100.00;99291.03;6303315;28;20049;-72
2024/01/15 03:39:49;;;;;;;10.90;0.90;;;;;;;1.78;100.00;99296.75;6303677;28;20463;-72
2024/01/15 03:42:50;;;;;;;5.43;1.02;;;;;;;1.82;100.00;99300.91;6303591;28;20060;-72
2024/01/15 03:45:51;;;;;;;5.53;0.73;;;;;;;1.80;100.00;99294.09;6302978;28;20319;-72
2024/01/15 03:48:53;;;;;;;4.18;0.65;;;;;;;1.83;100.00;99330.25;6303536;28;20044;-72
2024/01/15 03:51:54;;;;;;;3.25;1.65;;;;;;;1.86;100.00;99324.91;6303510;28;20052;-72
2024/01/15 03:54:57;;;;;;;7.07;1.92;;;;;;;1.74;100.00;99331.44;6303459;28;20056;-73
2024/01/15 03:57:58;;;;;;;6.72;0.90;;;;;;;1.65;100.00;99319.72;6302697;28;20049;-72
2024/01/15 04:00:59;;;;;;;4.60;0.68;;;;;;;1.48;100.00;99332.47;6302779;28;20353;-73
2024/01/15 04:04:01;;;;;;;6.32;1.48;;;;;;;1.49;100.00;99327.22;6302794;28;20068;-73
2024/01/15 04:07:02;;;;;;;1.75;0.52;;;;;;;1.46;100.00;99326.53;6301696;28;20460;-73
2024/01/15 04:10:05;;;;;;;9.98;1.40;;;;;;;1.42;100.00;99323.22;6303032;28;20052;-73
2024/01/15 04:13:07;;;;;;;8.68;0.98;;;;;;;1.40;100.00;99317.22;6302703;28;20048;-73
2024/01/15 04:16:08;;;;;;;2.40;1.08;;;;;;;1.55;100.00;99318.41;6302610;28;20052;-73
2024/01/15 04:19:09;;;;;;;3.38;1.42;;;;;;;1.63;100.00;99308.56;6302629;28;20345;-73
2024/01/15 04:22:11;;;;;;;2.45;1.25;;;;;;;1.66;100.00;99308.44;6302663;28;20055;-73
2024/01/15 04:25:13;;;;;;;7.38;1.83;;;;;;;1.70;100.00;99302.25;6302760;28;20056;-73
2024/01/15 04:28:14;;;;;;;9.20;2.00;;;;;;;1.84;100.00;99319.81;6302083;28;20041;-73
2024/01/15 04:31:22;;;;;;;6.82;1.83;;;;;;;1.57;100.00;99302.78;6302727;28;20048;-73
2024/01/15 04:34:23;;;;;;;3.35;1.67;;;;;;;1.50;100.00;99310.81;6302286;28;20353;-72
2024/01/15 04:37:25;;;;;;;7.85;1.30;;;;;;;1.37;100.00;99309.59;6301873;28;20053;-73
2024/01/15 04:40:27;;;;;;;3.47;1.25;;;;;;;1.27;100.00;99298.78;6302018;28;20060;-72
2024/01/15 04:43:28;;;;;;;3.88;1.13;;;;;;;1.26;100.00;99293.63;6302061;28;20056;-72
2024/01/15 04:46:30;;;;;;;5.38;1.20;;;;;;;1.42;100.00;99294.75;6301681;28;20049;-72
2024/01/15 04:49:31;;;;;;;5.97;1.00;;;;;;;1.41;100.00;99279.25;6302403;28;20437;-73
2024/01/15 04:52:33;;;;;;;5.90;1.20;;;;;;;1.42;100.00;99280.97;6301805;28;20048;-72
2024/01/15 04:55:35;;;;;;;13.48;1.83;;;;;;;1.51;100.00;99278.84;6301573;28;20051;-72
2024/01/15 04:58:37;;;;;;;5.32;1.33;;;;;;;1.51;100.00;99281.44;6301951;28;20044;-73
2024/01/15 05:01:38;;;;;;;10.85;2.10;;;;;;;1.51;100.00;99286.59;6302066;28;20049;-72
2024/01/15 05:04:40;;;;;;;5.78;1.55;;;;;;;1.51;100.00;99286.59;6301537;28;20360;-72
2024/01/15 05:07:41;;;;;;;5.78;1.13;;;;;;;1.45;100.00;99289.44;6300586;28;20048;-72
2024/01/15 05:10:44;;;;;;;5.78;1.88;;;;;;;1.53;100.00;99281.34;6301483;28;20353;-72
2024/01/15 05:13:45;;;;;;;18.08;3.03;;;;;;;1.61;100.00;99294.00;6301200;28;20052;-72
2024/01/15 05:16:47;;;;;;;1.73;0.93;;;;;;;1.59;100.00;99294.06;6301176;28;20051;-73
2024/01/15 05:19:49;;;;;;;12.93;1.35;;;;;;;1.60;100.00;99295.75;6301396;28;20056;-72
2024/01/15 05:22:50;;;;;;;6.63;1.63;;;;;;;1.70;100.00;99291.88;6301251;28;20060;-72
2024/01/15 05:25:53;;;;;;;1.20;0.80;;;;;;;1.68;100.00;99300.59;6300632;28;20053;-72
2024/01/15 05:28:54;;;;;;;4.93;1.27;;;;;;;1.68;100.00;99293.72;6301371;28;20041;-72
2024/01/15 05:31:55;;;;;;;3.92;1.20;;;;;;;1.62;100.00;99293.09;6301131;28;20049;-72
2024/01/15 05:34:57;;;;;;;2.50;1.00;;;;;;;1.49;100.00;99288.41;6300729;28;20135;-73
2024/01/15 05:37:58;;;;;;;2.88;1.00;;;;;;;1.43;100.00;99280.88;6300162;28;20049;-72
2024/01/15 05:41:00;;;;;;;5.65;1.75;;;;;;;1.41;100.00;99271.47;6300943;28;20063;-72
2024/01/15 05:44:02;;;;;;;4.30;1.45;;;;;;;1.32;100.00;99272.72;6300612;28;20333;-73
2024/01/15 05:47:04;;;;;;;2.67;1.45;;;;;;;1.43;100.00;99265.34;6300174;28;20052;-73
2024/01/15 05:50:06;;;;;;;3.05;1.70;;;;;;;1.39;100.00;99270.72;6300779;28;20041;-72
2024/01/15 05:53:07;;;;;;;5.53;2.22;;;;;;;1.33;100.00;99268.38;6300404;28;20068;-72
2024/01/15 05:56:10;;;;;;;9.25;1.52;;;;;;;1.27;100.00;99272.03;6300201;28;20056;-72
2024/01/15 05:59:12;;;;;;;7.97;1.60;;;;;;;1.26;100.00;99270.34;6300542;28;20131;-72
2024/01/15 06:02:13;;;;;;;5.32;1.08;;;;;;;1.27;100.00;99267.72;6300288;28;20352;-73
2024/01/15 06:05:15;;;;;;;9.45;1.17;;;;;;;1.38;100.00;99269.88;6300481;28;20055;-72
2024/01/15 06:08:16;;;;;;;8.23;1.25;;;;;;;1.44;100.00;99276.53;6298546;28;20045;-73
2024/01/15 06:11:19;;;;;;;2.83;0.85;;;;;;;1.45;100.00;99273.91;6292646;28;20051;-72
2024/01/15 06:14:20;;;;;;;6.93;1.67;;;;;;;1.47;100.00;99271.25;6300064;28;20052;-72
2024/01/15 06:17:21;;;;;;;5.80;1.80;;;;;;;1.42;100.00;99271.44;6299869;28;20131;-73
2024/01/15 06:20:23;;;;;;;8.32;1.60;;;;;;;1.62;100.00;99274.97;6300000;28;20345;-72
2024/01/15 06:23:24;;;;;;;6.32;1.00;;;;;;;1.53;100.00;99266.66;6300310;28;20044;-72
2024/01/15 06:26:27;;;;;;;4.32;1.30;;;;;;;1.59;100.00;99275.09;6299344;28;20052;-72
2024/01/15 06:29:29;;;;;;;3.45;1.23;;;;;;;1.63;100.00;99274.06;6300967;28;20448;-72
2024/01/15 06:32:30;;;;;;;10.15;1.33;;;;;;;1.61;100.00;99262.94;6297984;28;20045;-72
2024/01/15 06:35:31;;;;;;;11.95;1.85;;;;;;;1.55;100.00;99271.81;6277412;28;20060;-73
2024/01/15 06:38:33;;;;;;;2.53;1.00;;;;;;;1.54;100.00;99272.69;6278576;28;20059;-73
2024/01/15 06:41:41;;;;;;;4.22;0.90;;;;;;;1.61;100.00;99268.13;6280160;28;20049;-72
2024/01/15 06:44:42;;;;;;;5.53;1.48;;;;;;;1.71;100.00;99272.84;6274741;28;20053;-72
2024/01/15 06:47:43;;;;;;;8.20;1.10;;;;;;;1.65;100.00;99280.03;6274317;28;20056;-73
2024/01/15 06:50:45;;;;;;;4.60;1.35;;;;;;;1.62;100.00;99290.50;6274985;28;20052;-72
2024/01/15 06:53:47;;;;;;;4.97;1.65;;;;;;;1.60;100.00;99295.75;6274640;28;20334;-73
2024/01/15 06:56:49;;;;;;;10.15;1.30;;;;;;;1.56;100.00;99290.75;6286128;28;20064;-72
2024/01/15 06:59:51;;;;;;;12.52;1.75;;;;;;;1.49;100.00;99290.97;6299609;28;20049;-73
2024/01/15 07:02:52;;;;;;;6.45;2.03;;;;;;;1.57;100.00;99293.28;6299562;28;20437;-73
2024/01/15 07:05:53;;;;;;;2.17;0.75;;;;;;;1.56;100.00;99301.97;6298956;28;20052;-73
2024/01/15 07:08:54;;;;;;;6.85;2.10;;;;;;;1.43;100.00;99293.00;6299686;28;20045;-73
2024/01/15 07:11:58;;;;;;;4.05;1.65;;;;;;;1.51;100.00;99296.13;6299621;28;20349;-73
2024/01/15 07:14:59;;;;;;;8.43;1.65;;;;;;;1.49;100.00;99303.94;6298947;28;20131;-72
2024/01/15 07:18:00;;;;;;;9.48;2.25;;;;;;;1.15;100.00;99290.63;6299077;28;20048;-74
2024/01/15 07:21:02;;;;;;;5.00;1.48;;;;;;;1.25;100.00;99303.16;6299492;28;20056;-73
2024/01/15 07:24:04;;;;;;;5.55;1.70;;;;;;;1.32;100.00;99296.00;6299110;28;20052;-73
2024/01/15 07:27:08;;;;;;;3.72;1.85;;;;;;;1.38;100.00;99310.44;6289868;28;20040;-74
2024/01/15 07:30:10;;;;;;;7.10;1.85;;;;;;;1.37;100.00;99309.59;6295879;28;20051;-75
2024/01/15 07:33:12;;;;;;;4.68;1.95;;;;;;;1.41;100.00;99308.59;6291735;28;20045;-73
2024/01/15 07:36:13;;;;;;;17.77;3.17;;;;;;;1.38;100.00;99306.09;6294524;28;20052;-74
2024/01/15 07:39:14;;;;;;;4.88;2.13;;;;;;;1.40;100.00;99312.06;6295263;28;20045;-74
2024/01/15 07:42:17;;;;;;;2.85;1.55;;;;;;;1.27;100.00;99311.72;6303329;28;20044;-74
2024/01/15 07:45:18;;;;;;;9.35;1.48;;;;;;;1.26;100.00;99307.41;6303069;28;20384;-72
2024/01/15 07:48:20;;;;;;;2.95;1.50;;;;;;;1.22;100.00;99308.44;6303759;28;20190;-74
2024/01/15 07:51:21;;;;;;;6.22;1.88;;;;;;;1.18;100.00;99311.19;6303615;28;20051;-75
2024/01/15 07:54:23;;;;;;;9.23;1.90;;;;;;;1.28;100.00;99315.13;6302978;28;20061;-72
2024/01/15 07:57:26;;;;;;;8.43;1.17;;;;;;;1.20;100.00;99312.00;6291007;28;20433;-72
2024/01/15 08:00:27;;;;;;;1.73;1.00;;;;;;;1.23;100.00;99327.41;6301559;28;20037;-72
2024/01/15 08:03:28;;;;;;;6.05;1.33;;;;;;;1.23;100.00;99324.81;6298995;28;20048;-74
2024/01/15 08:06:29;;;;;;;3.70;1.08;;;;;;;1.33;100.00;99328.75;6292188;28;20049;-73
2024/01/15 08:09:31;;;;;;;2.72;1.17;;;;;;;1.40;100.00;99340.53;6297190;28;20041;-74
2024/01/15 08:12:33;;;;;;;5.93;1.55;;;;;;;1.42;100.00;99340.50;6302683;28;20444;-72
2024/01/15 08:15:35;;;;;;;4.18;1.17;;;;;;;1.48;100.00;99345.41;6290964;28;20053;-71
2024/01/15 08:18:36;;;;;;;10.75;2.13;;;;;;;1.41;100.00;99362.06;6299877;28;20051;-72
2024/01/15 08:21:37;;;;;;;14.88;1.73;;;;;;;1.53;100.00;99344.31;6299393;28;20056;-73
2024/01/15 08:24:39;;;;;;;4.88;1.60;;;;;;;1.58;100.00;99346.75;6292332;28;20049;-73
2024/01/15 08:27:42;;;;;;;11.38;0.98;;;;;;;1.49;100.00;99342.75;6298833;28;20048;-76
2024/01/15 08:30:43;;;;;;;2.55;1.45;;;;;;;1.49;100.00;99334.16;6296082;28;20040;-72
2024/01/15 08:33:45;;;;;;;5.45;1.38;;;;;;;1.51;100.00;99332.38;6287333;28;20445;-73
2024/01/15 08:36:47;;;;;;;4.82;1.60;;;;;;;1.63;100.00;99331.84;6277012;28;20060;-72
2024/01/15 08:39:48;;;;;;;4.32;1.08;;;;;;;1.66;100.00;99338.69;6294039;28;20044;-72
2024/01/15 08:42:51;;;;;;;6.53;1.35;;;;;;;1.55;100.00;99331.34;6297491;28;20052;-73
2024/01/15 08:45:52;;;;;;;8.13;1.60;;;;;;;1.62;100.00;99331.94;6301537;28;20342;-72
2024/01/15 08:48:53;;;;;;;11.85;2.00;;;;;;;1.67;100.00;99325.66;6294618;28;20052;-72
2024/01/15 08:51:55;;;;;;;3.13;1.52;;;;;;;1.68;100.00;99326.50;6299159;28;20055;-75
2024/01/15 08:54:56;;;;;;;4.63;1.23;;;;;;;1.70;100.00;99328.13;6289621;28;20052;-75
2024/01/15 08:57:59;;;;;;;3.67;1.60;;;;;;;1.62;100.00;99318.97;6301147;28;20051;-75
2024/01/15 09:01:00;;;;;;;7.43;1.38;;;;;;;1.59;100.00;99324.28;6297536;28;20462;-75
2024/01/15 09:04:01;;;;;;;7.28;1.65;;;;;;;1.53;100.00;99331.38;6299822;28;20056;-75
2024/01/15 09:07:03;;;;;;;9.30;1.38;;;;;;;1.52;100.00;99329.69;6300786;28;20047;-76
2024/01/15 09:10:05;;;;;;;6.93;1.15;;;;;;;1.61;100.00;99332.84;6292363;28;20357;-76
2024/01/15 09:13:08;;;;;;;5.57;1.35;;;;;;;1.67;100.00;99333.44;6297462;28;20048;-75
2024/01/15 09:16:09;;;;;;;3.92;1.33;;;;;;;1.63;100.00;99339.63;6297177;28;20075;-75
2024/01/15 09:19:10;;;;;;;2.40;1.45;;;;;;;1.73;100.00;99333.19;6291721;28;20044;-76
2024/01/15 09:22:14;;;;;;;12.55;1.83;;;;;;;1.75;100.00;99338.31;6300923;28;20044;-75
2024/01/15 09:25:15;;;;;;;4.20;1.65;;;;;;;1.68;100.00;99336.84;6300896;28;20055;-75
2024/01/15 09:28:18;;;;;;;1.80;1.05;;;;;;;1.72;100.00;99335.84;6300430;28;20460;-75
2024/01/15 09:31:19;;;;;;;3.95;1.38;;;;;;;1.76;100.00;99342.59;6300770;28;20036;-75
2024/01/15 09:34:21;;;;;;;2.17;0.95;;;;;;;1.77;100.00;99347.72;6297974;28;20052;-75
2024/01/15 09:37:23;;;;;;;8.48;1.40;;;;;;;1.87;100.00;99347.34;6300045;28;20044;-73
2024/01/15 09:40:25;;;;;;;6.90;2.05;;;;;;;1.65;100.00;99345.59;6300609;28;20045;-74
2024/01/15 09:43:28;;;;;;;3.25;1.33;;;;;;;1.78;100.00;99351.16;6300797;28;20048;-74
2024/01/15 09:46:29;;;;;;;10.27;1.30;;;;;;;1.77;100.00;99352.03;6300075;28;20345;-73
2024/01/15 09:49:31;;;;;;;1.45;0.75;;;;;;;1.74;100.00;99350.41;6300830;28;20055;-77
2024/01/15 09:52:34;;;;;;;3.17;0.57;;;;;;;1.80;100.00;99356.25;6300501;28;20437;-74
2024/01/15 09:55:37;;;;;;;2.75;0.82;;;;;;;1.81;100.00;99351.00;6300216;28;20453;-74
2024/01/15 09:58:41;;;;;;;7.75;1.27;;;;;;;1.70;100.00;99358.38;6292754;28;20052;-75
2024/01/15 10:01:44;;;;;;;3.00;1.00;;;;;;;1.76;100.00;99358.97;6297280;28;20045;-75
2024/01/15 10:04:46;;;;;;;1.40;0.93;;;;;;;1.72;100.00;99361.72;6292662;28;20171;-73
2024/01/15 10:07:50;;;;;;;6.78;1.27;;;;;;;1.72;100.00;99366.91;6298617;28;20048;-73
2024/01/15 10:10:51;;;;;;;2.83;1.38;;;;;;;1.69;100.00;99365.28;6294561;28;20129;-75
2024/01/15 10:13:57;;;;;;;1.48;1.10;;;;;;;1.88;100.00;99364.56;6299830;28;20052;-74
2024/01/15 10:16:58;;;;;;;4.95;1.73;;;;;;;1.89;100.00;99356.72;6299587;28;20356;-74
2024/01/15 10:19:59;;;;;;;1.88;1.25;;;;;;;1.83;100.00;99358.72;6300021;28;20056;-74
2024/01/15 10:23:04;;;;;;;5.93;1.52;;;;;;;1.92;100.00;99361.78;6299715;28;20360;-74
2024/01/15 10:26:05;;;;;;;10.23;1.73;;;;;;;1.85;100.00;99360.34;6299542;28;20048;-74
2024/01/15 10:29:08;;;;;;;6.25;1.35;;;;;;;1.83;100.00;99346.63;6300091;28;20045;-74
2024/01/15 10:32:10;;;;;;;2.03;1.10;;;;;;;1.82;100.00;99355.31;6298952;28;20052;-75
2024/01/15 10:35:11;;;;;;;5.35;0.90;;;;;;;1.78;100.00;99335.59;6297246;28;20056;-73
2024/01/15 10:38:13;;;;;;;1.73;0.90;;;;;;;2.10;100.00;99344.66;6299098;28;20433;-73
2024/01/15 10:41:14;;;;;;;5.88;1.65;;;;;;;1.86;100.00;99340.47;6300054;28;20045;-73
2024/01/15 10:44:17;;;;;;;1.20;0.90;;;;;;;2.09;100.00;99342.09;6299810;28;20048;-74
2024/01/15 10:47:20;;;;;;;4.03;0.98;;;;;;;2.10;100.00;99341.22;6296006;28;20048;-74
2024/01/15 10:50:22;;;;;;;2.90;1.20;;;;;;;2.05;100.00;99338.00;6299946;28;20049;-73
2024/01/15 10:53:24;;;;;;;8.05;0.80;;;;;;;2.09;100.00;99336.94;6299004;28;20044;-74
2024/01/15 10:56:28;;;;;;;5.25;1.13;;;;;;;2.17;100.00;99342.63;6299149;28;20044;-73
2024/01/15 10:59:32;;;;;;;6.20;1.35;;;;;;;2.36;100.00;99335.78;6299621;28;20045;-74
2024/01/15 11:02:35;;;;;;;2.72;0.70;;;;;;;2.43;100.00;99347.56;6294758;28;20048;-74
2024/01/15 11:05:38;;;;;;;2.65;0.95;;;;;;;2.50;100.00;99349.00;6298426;28;20052;-74
2024/01/15 11:08:41;;;;;;;3.63;0.90;;;;;;;2.32;100.00;99349.78;6299223;28;20342;-74
2024/01/15 11:11:45;;;;;;;10.68;1.67;;;;;;;2.24;100.00;99334.56;6301784;28;20135;-74
2024/01/15 11:14:49;;;;;;;5.10;1.98;;;;;;;2.41;100.00;99336.44;6304139;28;20049;-73
2024/01/15 11:18:03;;;;;;;9.27;1.65;;;;;;;2.54;100.00;99339.31;6303736;28;20056;-73
2024/01/15 11:21:23;;;;;;;7.43;1.38;;;;;;;2.22;100.00;99330.34;6304145;28;20049;-74
2024/01/15 11:24:35;;;;;;;10.63;1.50;;;;;;;2.37;100.00;99334.06;6303082;28;20378;-73
2024/01/15 11:27:43;;;;;;;2.40;1.20;;;;;;;2.37;100.00;99331.47;6302748;28;20153;-74
2024/01/15 11:30:47;;;;;;;18.15;2.50;;;;;;;2.25;100.00;99323.28;6301142;28;20441;-75
2024/01/15 11:33:49;;;;;;;7.22;1.35;;;;;;;2.29;100.00;99329.19;6289638;28;20072;-74
2024/01/15 11:37:02;;;;;;;5.60;1.30;;;;;;;2.17;100.00;99333.13;6277837;28;20052;-74
2024/01/15 11:40:04;;;;;;;5.70;1.77;;;;;;;2.32;100.00;99342.03;6279069;28;20045;-75
2024/01/15 11:43:06;;;;;;;5.55;1.35;;;;;;;2.37;100.00;99332.28;6278641;28;20118;-74
2024/01/15 11:46:12;;;;;;;3.33;1.38;;;;;;;2.36;100.00;99327.16;6288726;28;20082;-74
2024/01/15 11:49:27;;;;;;;5.50;1.48;;;;;;;2.42;100.00;99317.38;6303792;28;20425;-75
2024/01/15 11:52:33;;;;;;;8.15;1.83;;;;;;;2.35;100.00;99325.47;6303426;28;20045;-74
2024/01/15 11:55:36;;;;;;;7.60;1.63;;;;;;;2.29;100.00;99329.19;6302600;28;20056;-74
2024/01/15 11:58:38;;;;;;;2.38;1.23;;;;;;;2.07;100.00;99312.84;6303474;28;20051;-74
2024/01/15 12:01:41;;;;;;;15.20;2.50;;;;;;;2.17;100.00;99324.50;6297665;28;20087;-73
2024/01/15 12:04:42;;;;;;;9.80;1.73;;;;;;;2.22;100.00;99314.78;6282593;28;20365;-75
2024/01/15 12:07:45;;;;;;;2.45;1.40;;;;;;;2.26;100.00;99318.94;6299355;28;20095;-75
2024/01/15 12:10:46;;;;;;;6.07;1.83;;;;;;;2.36;100.00;99314.19;6303267;28;20048;-75
2024/01/15 12:13:48;;;;;;;8.60;2.80;;;;;;;2.34;100.00;99316.03;6303382;28;20052;-75
2024/01/15 12:16:51;;;;;;;13.75;4.45;;;;;;;2.33;100.00;99303.97;6302273;28;20072;-75
2024/01/15 12:19:52;;;;;;;12.10;2.22;;;;;;;2.31;100.00;99303.19;6284413;28;20045;-74
2024/01/15 12:22:54;;;;;;;2.80;1.10;;;;;;;2.19;100.00;99305.41;6279380;28;20049;-74
2024/01/15 12:25:56;;;;;;;3.90;1.20;;;;;;;2.20;100.00;99314.84;6302115;28;20053;-74
2024/01/15 12:28:57;;;;;;;12.38;1.65;;;;;;;2.06;100.00;99324.13;6294823;28;20052;-75
2024/01/15 12:32:00;;;;;;;4.32;1.42;;;;;;;2.09;100.00;99324.84;6302417;28;20353;-74
2024/01/15 12:35:02;;;;;;;3.15;1.42;;;;;;;2.03;100.00;99314.72;6302344;28;20056;-73
2024/01/15 12:38:04;;;;;;;4.15;1.27;;;;;;;1.77;100.00;99329.59;6301278;28;20508;-72
2024/01/15 12:41:05;;;;;;;4.22;1.20;;;;;;;1.56;100.00;99338.19;6300174;28;20044;-73
2024/01/15 12:44:07;;;;;;;23.55;5.32;;;;;;;1.41;100.00;99333.59;6302206;28;20055;-73
2024/01/15 12:47:10;;;;;;;4.53;1.52;;;;;;;1.41;100.00;99333.59;6301667;28;20045;-73
2024/01/15 12:50:12;;;;;;;10.38;1.90;;;;;;;1.45;100.00;99324.81;6301986;28;20429;-74
2024/01/15 12:53:13;;;;;;;7.00;2.33;;;;;;;1.64;100.00;99325.81;6301856;28;20365;-75
2024/01/15 12:56:15;;;;;;;7.90;2.58;;;;;;;1.83;100.00;99327.66;6301251;28;20467;-74
2024/01/15 12:59:17;;;;;;;8.75;1.90;;;;;;;1.93;100.00;99324.63;6302022;28;20052;-73
2024/01/15 13:02:19;;;;;;;5.70;2.08;;;;;;;1.88;100.00;99330.91;6301591;28;20665;-74
2024/01/15 13:05:21;;;;;;;4.20;1.63;;;;;;;1.94;100.00;99322.88;6301208;28;20044;-75
2024/01/15 13:08:25;;;;;;;5.47;0.85;;;;;;;1.92;100.00;99325.53;6301452;28;20149;-74
2024/01/15 13:11:26;;;;;;;4.85;1.45;;;;;;;1.97;100.00;99326.19;6301625;28;20387;-75
2024/01/15 13:14:28;;;;;;;8.30;1.33;;;;;;;1.79;100.00;99326.94;6301645;28;20129;-75
2024/01/15 13:17:31;;;;;;;7.55;1.27;;;;;;;1.77;100.00;99331.31;6300070;28;20433;-72
2024/01/15 13:20:32;;;;;;;1.40;0.98;;;;;;;1.78;100.00;99331.28;6300973;28;20449;-73
2024/01/15 13:23:33;;;;;;;3.58;1.70;;;;;;;1.69;100.00;99335.97;6299884;28;20044;-73
2024/01/15 13:26:36;;;;;;;2.88;1.20;;;;;;;1.50;100.00;99334.13;6300298;28;20048;-73
2024/01/15 13:29:38;;;;;;;4.00;1.45;;;;;;;1.56;100.00;99329.59;6300003;28;20468;-74
2024/01/15 13:32:40;;;;;;;6.07;1.90;;;;;;;1.58;100.00;99333.78;6291471;28;20145;-74
2024/01/15 13:35:42;;;;;;;6.43;1.33;;;;;;;1.58;100.00;99335.53;6285474;28;20047;-73
2024/01/15 13:38:43;;;;;;;2.00;1.10;;;;;;;1.61;100.00;99333.69;6291903;28;20048;-73
2024/01/15 13:41:45;;;;;;;2.03;1.58;;;;;;;1.72;100.00;99334.09;6289034;28;20495;-74
2024/01/15 13:44:46;;;;;;;5.15;1.00;;;;;;;1.84;100.00;99331.91;6287261;28;20536;-73
2024/01/15 13:47:49;;;;;;;3.50;0.90;;;;;;;1.95;100.00;99330.59;6287544;28;20051;-73
2024/01/15 13:50:50;;;;;;;4.53;1.83;;;;;;;1.88;100.00;99339.50;6287831;28;20048;-74
2024/01/15 13:53:52;;;;;;;6.90;1.10;;;;;;;1.83;100.00;99340.59;6285240;28;20453;-75
2024/01/15 13:56:54;;;;;;;4.40;1.00;;;;;;;1.80;100.00;99348.50;6275166;28;20499;-75
2024/01/15 13:59:55;;;;;;;1.73;1.20;;;;;;;1.85;100.00;99354.31;6285251;28;20056;-75
2024/01/15 14:02:58;;;;;;;2.58;1.15;;;;;;;1.74;100.00;99345.25;6300057;28;20175;-73
2024/01/15 14:05:59;;;;;;;3.45;1.48;;;;;;;1.59;100.00;99345.84;6294901;28;20139;-73
2024/01/15 14:09:01;;;;;;;9.40;1.30;;;;;;;1.45;100.00;99348.97;6298472;28;20049;-73
2024/01/15 14:12:02;;;;;;;7.47;1.10;;;;;;;1.56;100.00;99352.91;6300475;28;20067;-72
2024/01/15 14:15:05;;;;;;;9.07;1.55;;;;;;;1.63;100.00;99351.72;6296237;28;20067;-74